Terminal Aerodrome Forecast
Issued by NWS Raleigh/Durham, NC

Home | Current Version | Previous Version | Text Only | Print | Product List | Glossary On
Versions: 1 2 3 4 5 6 7 8 9 10 11 12 13 14 15 16
000
FTUS42 KRAH 231131
TAFRDU
TAF
KRDU 231131Z 2312/2412 22008KT P6SM FEW100 FEW250
     FM231900 26004KT P6SM VCSH SCT040 BKN150
      TEMPO 2319/2323 3SM -TSRA BKN050CB
     FM240300 36005KT P6SM OVC100
     FM240900 04003KT 4SM BR OVC035=

USA.gov is the U.S. government's official web portal to all federal, state and local government web resources and services.